Time;durP1;ratioP1;P1;durP2;ratioP2;P2;SDS_P1;SDS_P2;PMS_P1;PMS_P2;Temp;Humidity;BMP_temperature;BMP_pressure;BME280_temperature;BME280_humidity;BME280_pressure;Samples;Min_cycle;Max_cycle;Signal;HPM_P1;HPM_P2
2022/09/09 00:01:22;;;;;;;0.85;0.70;;;15.80;63.90;;;;;;5070291;28;20032;-62
2022/09/09 00:04:18;;;;;;;1.50;0.63;;;15.70;64.60;;;;;;5067612;28;20021;-62
2022/09/09 00:06:52;;;;;;;1.63;0.80;;;15.70;64.20;;;;;;5067999;28;20049;-62
2022/09/09 00:09:21;;;;;;;2.92;0.70;;;15.70;64.30;;;;;;5102790;28;20039;-61
2022/09/09 00:12:11;;;;;;;1.35;0.80;;;15.70;64.10;;;;;;5073333;28;20036;-62
2022/09/09 00:14:36;;;;;;;1.75;0.98;;;15.70;64.40;;;;;;5083343;28;20056;-61
2022/09/09 00:17:08;;;;;;;4.93;0.90;;;15.60;64.10;;;;;;5100589;28;20040;-62
2022/09/09 00:19:53;;;;;;;2.58;1.02;;;15.60;64.30;;;;;;5068656;28;20044;-62
2022/09/09 00:22:27;;;;;;;2.88;0.80;;;15.50;64.30;;;;;;5074326;28;20021;-63
2022/09/09 00:25:16;;;;;;;1.25;0.80;;;15.50;64.60;;;;;;5077515;28;20040;-60
2022/09/09 00:27:46;;;;;;;2.95;0.75;;;15.50;64.20;;;;;;5081687;28;20018;-64
2022/09/09 00:30:19;;;;;;;3.75;0.73;;;15.50;64.30;;;;;;5085833;28;20029;-62
2022/09/09 00:32:47;;;;;;;1.30;0.80;;;15.40;64.30;;;;;;5092508;28;20119;-62
2022/09/09 00:35:12;;;;;;;2.28;0.90;;;15.40;64.50;;;;;;5095871;28;20036;-62
2022/09/09 00:37:40;;;;;;;1.58;0.75;;;15.40;64.60;;;;;;5087878;28;20076;-62
2022/09/09 00:40:22;;;;;;;5.15;1.00;;;15.30;64.60;;;;;;5086984;28;20025;-62
2022/09/09 00:43:03;;;;;;;4.30;1.00;;;15.40;65.10;;;;;;5073861;28;20096;-61
2022/09/09 00:46:03;;;;;;;4.25;0.68;;;15.30;64.80;;;;;;5073870;28;20036;-61
2022/09/09 00:48:43;;;;;;;1.90;0.85;;;15.30;65.10;;;;;;5069856;28;20025;-62
2022/09/09 00:51:34;;;;;;;1.23;0.80;;;15.30;64.60;;;;;;5073066;28;20033;-62
2022/09/09 00:54:17;;;;;;;2.85;1.00;;;15.30;64.70;;;;;;5085341;28;20119;-62
2022/09/09 00:57:23;;;;;;;2.08;0.80;;;15.20;64.90;;;;;;5085822;28;20032;-62
2022/09/09 00:59:52;;;;;;;4.95;0.75;;;15.20;65.70;;;;;;5076611;28;20051;-62
2022/09/09 01:02:35;;;;;;;3.42;0.90;;;15.20;64.80;;;;;;5066567;28;20043;-63
2022/09/09 01:05:34;;;;;;;2.17;1.00;;;15.20;65.60;;;;;;5074001;28;20036;-63
2022/09/09 01:08:03;;;;;;;2.17;0.70;;;15.20;66.20;;;;;;5077814;28;20024;-63
2022/09/09 01:10:53;;;;;;;6.50;0.98;;;15.10;65.30;;;;;;5080498;28;20037;-63
2022/09/09 01:13:30;;;;;;;5.10;1.20;;;15.10;66.40;;;;;;5105671;28;20035;-61
2022/09/09 01:15:59;;;;;;;2.80;0.88;;;15.10;65.80;;;;;;5078089;28;20079;-61
2022/09/09 01:18:34;;;;;;;1.20;0.80;;;15.10;65.30;;;;;;5076577;28;20031;-62
2022/09/09 01:21:05;;;;;;;1.90;0.98;;;15.10;65.40;;;;;;5070108;28;20044;-60
2022/09/09 01:23:46;;;;;;;1.50;0.90;;;15.10;65.40;;;;;;5083517;28;20047;-63
2022/09/09 01:26:24;;;;;;;4.18;0.80;;;15.10;65.20;;;;;;5076766;28;20040;-62
2022/09/09 01:28:54;;;;;;;3.40;0.90;;;15.00;65.10;;;;;;5078652;28;20035;-63
2022/09/09 01:31:32;;;;;;;3.75;0.93;;;15.00;65.30;;;;;;5080316;28;20372;-62
2022/09/09 01:33:58;;;;;;;2.58;0.90;;;15.00;65.70;;;;;;5082053;28;20033;-63
2022/09/09 01:36:43;;;;;;;5.93;0.90;;;14.90;65.20;;;;;;5081806;28;20032;-61
2022/09/09 01:39:09;;;;;;;3.58;1.05;;;14.90;65.80;;;;;;5073076;28;20032;-61
2022/09/09 01:41:35;;;;;;;5.35;1.00;;;14.90;65.10;;;;;;5083911;28;20060;-61
2022/09/09 01:44:01;;;;;;;2.88;0.80;;;14.80;65.00;;;;;;5083144;28;20051;-61
2022/09/09 01:46:28;;;;;;;2.20;0.77;;;14.80;65.20;;;;;;5083718;28;20033;-63
2022/09/09 01:48:56;;;;;;;8.55;0.88;;;14.80;65.50;;;;;;5097398;28;20540;-62
2022/09/09 01:51:23;;;;;;;3.38;0.90;;;14.80;65.80;;;;;;5072761;28;20037;-62
2022/09/09 01:53:48;;;;;;;2.33;0.70;;;14.70;65.80;;;;;;5097102;28;20051;-60
2022/09/09 01:56:37;;;;;;;2.72;1.13;;;14.70;65.80;;;;;;5082726;28;20037;-61
2022/09/09 01:59:24;;;;;;;2.15;0.80;;;14.70;66.30;;;;;;5085831;28;20039;-62
2022/09/09 02:01:56;;;;;;;1.70;0.73;;;14.70;65.60;;;;;;5072961;28;20056;-62
2022/09/09 02:04:37;;;;;;;2.83;0.75;;;14.70;65.50;;;;;;5080718;28;20047;-61
2022/09/09 02:07:12;;;;;;;1.55;0.68;;;14.70;66.00;;;;;;5080920;28;20033;-62
2022/09/09 02:09:42;;;;;;;0.77;0.68;;;14.70;65.70;;;;;;5083111;28;20039;-61
2022/09/09 02:12:14;;;;;;;4.05;0.77;;;14.70;65.60;;;;;;5070809;28;20037;-62
2022/09/09 02:14:46;;;;;;;2.90;0.90;;;14.60;65.70;;;;;;5102160;28;20031;-62
2022/09/09 02:17:17;;;;;;;0.95;0.75;;;14.60;65.50;;;;;;5065798;28;20032;-61
2022/09/09 02:19:53;;;;;;;3.35;0.80;;;14.60;65.60;;;;;;5079500;28;20040;-60
2022/09/09 02:22:24;;;;;;;3.72;0.80;;;14.60;65.70;;;;;;5079236;28;20047;-62
2022/09/09 02:24:53;;;;;;;2.13;0.70;;;14.50;65.60;;;;;;5089733;28;20043;-62
2022/09/09 02:27:22;;;;;;;3.53;0.75;;;14.50;65.60;;;;;;5091063;28;20024;-61
2022/09/09 02:29:49;;;;;;;0.90;0.80;;;14.50;65.70;;;;;;5086339;28;20029;-62
2022/09/09 02:32:19;;;;;;;2.40;0.77;;;14.40;65.70;;;;;;5083521;28;20053;-62
2022/09/09 02:34:59;;;;;;;3.67;1.00;;;14.40;65.70;;;;;;5074642;28;20036;-62
2022/09/09 02:37:30;;;;;;;2.28;0.98;;;14.40;66.10;;;;;;5078730;28;20099;-62
2022/09/09 02:39:55;;;;;;;1.33;0.70;;;14.40;65.80;;;;;;5078119;28;20103;-61
2022/09/09 02:42:22;;;;;;;4.72;0.75;;;14.30;65.80;;;;;;5082492;28;20025;-62
2022/09/09 02:44:47;;;;;;;2.92;0.80;;;14.40;66.10;;;;;;5081488;28;20092;-61
2022/09/09 02:47:24;;;;;;;4.45;0.90;;;14.30;66.00;;;;;;5087179;28;20036;-61
2022/09/09 02:50:05;;;;;;;3.03;0.82;;;14.30;66.00;;;;;;5085918;28;20100;-59
2022/09/09 02:52:39;;;;;;;4.40;1.30;;;14.30;66.40;;;;;;5068749;28;20067;-60
2022/09/09 02:55:12;;;;;;;4.22;1.40;;;14.30;66.60;;;;;;5082273;28;20136;-61
2022/09/09 02:57:38;;;;;;;2.47;1.23;;;14.30;66.30;;;;;;5073410;28;20288;-61
2022/09/09 03:00:05;;;;;;;1.92;1.10;;;14.30;66.30;;;;;;5090405;28;20025;-62
2022/09/09 03:02:30;;;;;;;3.78;0.90;;;14.30;66.50;;;;;;5109347;28;20028;-62
2022/09/09 03:04:56;;;;;;;4.95;1.10;;;14.30;66.30;;;;;;5090475;28;20035;-62
2022/09/09 03:07:22;;;;;;;5.00;0.90;;;14.30;66.40;;;;;;5091569;28;20031;-61
2022/09/09 03:09:47;;;;;;;1.75;0.90;;;14.30;66.40;;;;;;5083968;28;20461;-62
2022/09/09 03:12:13;;;;;;;1.45;0.90;;;14.30;66.40;;;;;;5087819;28;20032;-61
2022/09/09 03:14:39;;;;;;;2.47;0.82;;;14.20;66.30;;;;;;5083425;28;20033;-62
2022/09/09 03:17:05;;;;;;;1.38;0.80;;;14.20;66.30;;;;;;5082568;28;20056;-61
2022/09/09 03:19:31;;;;;;;1.60;0.80;;;14.20;66.50;;;;;;5081295;28;20048;-61
2022/09/09 03:21:58;;;;;;;3.05;0.98;;;14.20;66.70;;;;;;5073926;28;20427;-61
2022/09/09 03:24:24;;;;;;;7.45;1.02;;;14.20;66.80;;;;;;5084905;28;20088;-62
2022/09/09 03:26:50;;;;;;;3.78;0.80;;;14.20;66.90;;;;;;5090227;28;20028;-62
2022/09/09 03:29:17;;;;;;;3.00;1.10;;;14.20;67.00;;;;;;5086751;28;20033;-62
2022/09/09 03:31:43;;;;;;;1.42;0.90;;;14.20;67.10;;;;;;5090572;28;20094;-62
2022/09/09 03:34:08;;;;;;;3.85;0.93;;;14.20;67.10;;;;;;5099291;28;20047;-62
2022/09/09 03:36:34;;;;;;;0.95;0.75;;;14.20;67.20;;;;;;5085727;28;20036;-63
2022/09/09 03:39:00;;;;;;;1.35;1.00;;;14.20;67.20;;;;;;5092874;28;20036;-61
2022/09/09 03:41:27;;;;;;;0.95;0.82;;;14.30;67.30;;;;;;5093806;28;20123;-63
2022/09/09 03:43:53;;;;;;;2.83;1.05;;;14.30;67.30;;;;;;5103028;28;20519;-63
2022/09/09 03:46:20;;;;;;;1.27;0.90;;;14.20;67.30;;;;;;5085110;28;20043;-62
2022/09/09 03:48:46;;;;;;;2.35;1.15;;;14.20;67.30;;;;;;5102396;28;20048;-61
2022/09/09 03:51:12;;;;;;;6.88;1.73;;;14.30;68.20;;;;;;5097107;28;20052;-61
2022/09/09 03:53:38;;;;;;;7.22;1.80;;;14.30;67.60;;;;;;5078862;28;20029;-62
2022/09/09 03:56:06;;;;;;;3.33;1.75;;;14.30;67.60;;;;;;5086358;28;20036;-62
2022/09/09 03:58:33;;;;;;;6.03;1.70;;;14.30;67.80;;;;;;5092318;28;20028;-61
2022/09/09 04:01:13;;;;;;;9.10;2.58;;;14.30;67.70;;;;;;5090907;28;20033;-62
2022/09/09 04:03:39;;;;;;;4.60;2.60;;;14.30;68.10;;;;;;5077863;28;20387;-62
2022/09/09 04:06:07;;;;;;;4.78;2.90;;;14.30;67.80;;;;;;5084347;28;20032;-61
2022/09/09 04:08:33;;;;;;;3.80;2.15;;;14.40;68.00;;;;;;5088886;28;20132;-62
2022/09/09 04:11:01;;;;;;;5.03;1.50;;;14.40;68.20;;;;;;5089827;28;20047;-61
2022/09/09 04:13:27;;;;;;;2.95;1.15;;;14.50;68.40;;;;;;5100187;28;20005;-62
2022/09/09 04:15:55;;;;;;;3.83;1.05;;;14.50;68.40;;;;;;5116633;28;20024;-62
2022/09/09 04:18:21;;;;;;;7.05;0.95;;;14.50;68.50;;;;;;5101263;28;20075;-62
2022/09/09 04:20:48;;;;;;;5.18;1.23;;;14.50;68.40;;;;;;5106200;28;20099;-61
2022/09/09 04:23:14;;;;;;;4.22;1.20;;;14.60;68.50;;;;;;5102056;28;20051;-62
2022/09/09 04:25:48;;;;;;;7.10;1.15;;;14.60;68.30;;;;;;5100357;28;20024;-60
2022/09/09 04:28:14;;;;;;;8.55;1.40;;;14.60;68.30;;;;;;5088150;28;20028;-62
2022/09/09 04:30:41;;;;;;;1.45;1.10;;;14.60;68.00;;;;;;5101342;28;20052;-62
2022/09/09 04:33:07;;;;;;;3.58;1.20;;;14.60;68.00;;;;;;5078734;28;20036;-62
2022/09/09 04:35:33;;;;;;;2.85;1.13;;;14.60;68.30;;;;;;5088450;28;20084;-61
2022/09/09 04:37:59;;;;;;;4.28;1.48;;;14.60;68.40;;;;;;5098432;28;20039;-62
2022/09/09 04:40:25;;;;;;;3.08;1.25;;;14.60;68.70;;;;;;5095743;28;20037;-61
2022/09/09 04:42:51;;;;;;;2.90;1.38;;;14.60;68.90;;;;;;5098320;28;20036;-61
2022/09/09 04:45:18;;;;;;;7.55;1.88;;;14.60;69.30;;;;;;5104201;28;20055;-62
2022/09/09 04:47:43;;;;;;;5.53;1.60;;;14.60;69.60;;;;;;5100140;28;20109;-62
2022/09/09 04:50:09;;;;;;;2.33;1.23;;;14.60;69.70;;;;;;5093824;28;20097;-61
2022/09/09 04:52:35;;;;;;;5.20;1.35;;;14.60;69.70;;;;;;5102390;28;20032;-62
2022/09/09 04:55:01;;;;;;;3.47;1.17;;;14.60;69.60;;;;;;5093991;28;20025;-62
2022/09/09 04:57:28;;;;;;;1.70;1.00;;;14.70;69.80;;;;;;5085230;28;20028;-61
2022/09/09 04:59:54;;;;;;;3.45;1.13;;;14.70;70.00;;;;;;5095403;28;20471;-60
2022/09/09 05:02:20;;;;;;;2.33;1.10;;;14.70;70.10;;;;;;5086053;28;20036;-61
2022/09/09 05:04:45;;;;;;;2.92;1.20;;;14.70;70.10;;;;;;5095320;28;20036;-61
2022/09/09 05:07:11;;;;;;;2.60;1.30;;;14.80;70.10;;;;;;5073853;28;20360;-61
2022/09/09 05:09:37;;;;;;;4.30;1.45;;;14.80;70.20;;;;;;5104240;28;20038;-61
2022/09/09 05:12:04;;;;;;;6.53;1.50;;;14.80;70.30;;;;;;5087030;28;20048;-61
2022/09/09 05:14:29;;;;;;;3.92;1.17;;;14.90;70.50;;;;;;5105976;28;20041;-62
2022/09/09 05:16:56;;;;;;;2.97;1.30;;;14.90;70.60;;;;;;5080862;28;20548;-62
2022/09/09 05:19:21;;;;;;;3.45;1.52;;;14.90;70.60;;;;;;5106002;28;20028;-60
2022/09/09 05:21:47;;;;;;;4.07;1.27;;;15.00;70.70;;;;;;5082185;28;20028;-62
2022/09/09 05:24:13;;;;;;;2.85;1.17;;;15.00;70.80;;;;;;5089848;28;20058;-61
2022/09/09 05:26:39;;;;;;;3.22;1.23;;;15.00;70.90;;;;;;5091990;28;20016;-61
2022/09/09 05:29:05;;;;;;;1.83;1.15;;;15.10;70.90;;;;;;5078964;28;20116;-61
2022/09/09 05:31:32;;;;;;;4.20;1.35;;;15.10;70.90;;;;;;5079265;28;20049;-62
2022/09/09 05:33:59;;;;;;;3.38;1.00;;;15.10;70.90;;;;;;5090683;28;20052;-62
2022/09/09 05:36:24;;;;;;;3.65;1.30;;;15.20;70.80;;;;;;5094164;28;20040;-61
2022/09/09 05:38:50;;;;;;;3.55;1.30;;;15.20;71.50;;;;;;5105586;28;20078;-62
2022/09/09 05:41:17;;;;;;;3.60;1.70;;;15.20;70.80;;;;;;5077294;28;20032;-62
2022/09/09 05:43:49;;;;;;;5.47;1.63;;;15.30;70.70;;;;;;5088026;28;20025;-60
2022/09/09 05:46:19;;;;;;;3.95;1.80;;;15.20;70.60;;;;;;5092499;28;20072;-61
2022/09/09 05:48:47;;;;;;;8.23;1.80;;;15.30;70.90;;;;;;5089273;28;20024;-61
2022/09/09 05:51:15;;;;;;;4.57;1.60;;;15.30;70.70;;;;;;5090744;28;20028;-61
2022/09/09 05:53:42;;;;;;;5.55;1.65;;;15.30;70.80;;;;;;5082461;28;20037;-62
2022/09/09 05:56:14;;;;;;;2.83;1.40;;;15.40;70.80;;;;;;5089539;28;20035;-62
2022/09/09 05:58:43;;;;;;;4.88;1.17;;;15.40;71.00;;;;;;5079010;28;20040;-60
2022/09/09 06:01:30;;;;;;;2.33;1.10;;;15.40;71.00;;;;;;5090927;28;20028;-61
2022/09/09 06:03:57;;;;;;;3.92;1.42;;;15.40;71.70;;;;;;5066388;28;20040;-60
2022/09/09 06:06:28;;;;;;;3.88;1.20;;;15.40;70.80;;;;;;5092694;28;20032;-61
2022/09/09 06:08:57;;;;;;;7.43;1.48;;;15.50;71.00;;;;;;5066623;28;20029;-60
2022/09/09 06:11:30;;;;;;;2.47;1.48;;;15.50;70.80;;;;;;5089502;28;20479;-61
2022/09/09 06:13:56;;;;;;;3.15;1.80;;;15.60;71.00;;;;;;5066147;28;20101;-61
2022/09/09 06:16:25;;;;;;;4.72;1.50;;;15.60;70.70;;;;;;5095218;28;20036;-62
2022/09/09 06:18:52;;;;;;;5.97;1.38;;;15.60;70.80;;;;;;5080398;28;20107;-62
2022/09/09 06:21:27;;;;;;;3.10;1.45;;;15.70;70.80;;;;;;5093924;28;20100;-62
2022/09/09 06:23:53;;;;;;;2.20;1.13;;;15.70;70.70;;;;;;5091780;28;20072;-61
2022/09/09 06:26:26;;;;;;;4.57;1.27;;;15.70;70.40;;;;;;5082126;28;20041;-63
2022/09/09 06:28:54;;;;;;;3.25;1.05;;;15.70;71.00;;;;;;5091142;28;20036;-60
2022/09/09 06:31:25;;;;;;;2.47;1.20;;;15.80;70.60;;;;;;5094483;28;20048;-61
2022/09/09 06:33:52;;;;;;;2.85;1.00;;;15.80;71.00;;;;;;5068319;28;20046;-61
2022/09/09 06:36:20;;;;;;;3.90;0.93;;;15.80;70.80;;;;;;5095512;28;20064;-61
2022/09/09 06:38:47;;;;;;;5.70;1.30;;;15.80;71.00;;;;;;5093201;28;20028;-62
2022/09/09 06:41:15;;;;;;;2.35;0.90;;;15.90;71.10;;;;;;5097525;28;20036;-61
2022/09/09 06:43:42;;;;;;;5.65;1.38;;;15.90;71.30;;;;;;5077824;28;20021;-62
2022/09/09 06:46:11;;;;;;;2.55;1.45;;;16.00;71.50;;;;;;5110634;28;20024;-62
2022/09/09 06:48:38;;;;;;;6.72;2.03;;;16.00;71.80;;;;;;5115936;28;20050;-63
2022/09/09 06:51:12;;;;;;;5.47;1.77;;;16.10;71.70;;;;;;5084089;28;20033;-62
2022/09/09 06:53:39;;;;;;;7.20;1.55;;;16.20;72.00;;;;;;5070195;28;20024;-63
2022/09/09 06:56:29;;;;;;;13.23;2.00;;;16.40;72.00;;;;;;5099281;28;20411;-63
2022/09/09 06:58:58;;;;;;;17.20;2.35;;;16.50;72.40;;;;;;5085730;28;20041;-61
2022/09/09 07:01:28;;;;;;;13.18;2.50;;;16.70;71.80;;;;;;5096784;28;20028;-62
2022/09/09 07:03:55;;;;;;;16.83;2.65;;;16.80;71.50;;;;;;5093339;28;20054;-63
2022/09/09 07:06:26;;;;;;;15.77;2.47;;;17.00;71.30;;;;;;5093787;28;20043;-62
2022/09/09 07:08:57;;;;;;;14.48;2.38;;;17.10;70.60;;;;;;5100782;28;20028;-63
2022/09/09 07:11:26;;;;;;;17.85;2.30;;;17.20;70.20;;;;;;5076969;28;20028;-62
2022/09/09 07:13:52;;;;;;;16.70;2.38;;;17.30;70.00;;;;;;5083954;28;20028;-60
2022/09/09 07:16:20;;;;;;;11.90;2.00;;;17.40;69.70;;;;;;5082631;28;20157;-62
2022/09/09 07:18:46;;;;;;;13.98;2.22;;;17.40;69.40;;;;;;5084965;28;20395;-62
2022/09/09 07:21:13;;;;;;;14.25;2.47;;;17.50;69.40;;;;;;5096564;28;20039;-63
2022/09/09 07:23:40;;;;;;;14.00;2.40;;;17.50;69.20;;;;;;5102545;28;20039;-62
2022/09/09 07:26:19;;;;;;;8.68;1.83;;;17.60;69.30;;;;;;5083233;28;20084;-62
2022/09/09 07:28:45;;;;;;;6.20;1.50;;;17.70;69.40;;;;;;5077288;28;20029;-61
2022/09/09 07:31:25;;;;;;;9.23;1.65;;;17.80;69.50;;;;;;5078092;28;20132;-62
2022/09/09 07:33:51;;;;;;;7.03;1.60;;;17.90;69.60;;;;;;5081080;28;20084;-63
2022/09/09 07:36:23;;;;;;;5.32;1.25;;;18.10;69.40;;;;;;5096923;28;20063;-63
2022/09/09 07:38:56;;;;;;;3.40;1.20;;;18.20;69.40;;;;;;5086541;28;20434;-61
2022/09/09 07:41:25;;;;;;;6.50;1.73;;;18.40;69.40;;;;;;5084807;28;20035;-61
2022/09/09 07:43:53;;;;;;;2.90;1.40;;;18.60;69.30;;;;;;5071238;28;20498;-61
2022/09/09 07:46:21;;;;;;;8.18;1.02;;;18.80;69.20;;;;;;5088254;28;20035;-61
2022/09/09 07:48:51;;;;;;;4.45;1.48;;;19.00;69.00;;;;;;5097805;28;20035;-63
2022/09/09 07:51:28;;;;;;;3.45;1.33;;;19.20;68.50;;;;;;5085654;28;20529;-62
2022/09/09 07:53:57;;;;;;;5.20;1.30;;;19.40;68.20;;;;;;5087385;28;20042;-61
2022/09/09 07:56:24;;;;;;;7.22;1.50;;;19.60;68.30;;;;;;5080993;28;20028;-62
2022/09/09 07:58:52;;;;;;;3.13;1.10;;;19.90;68.10;;;;;;5091290;28;20025;-63
2022/09/09 08:01:26;;;;;;;5.32;1.00;;;20.00;67.70;;;;;;5088760;28;20033;-60
2022/09/09 08:03:58;;;;;;;8.85;1.10;;;20.30;67.10;;;;;;5087120;28;20028;-60
2022/09/09 08:06:26;;;;;;;3.35;1.08;;;20.40;66.80;;;;;;5082801;28;20475;-61
2022/09/09 08:08:54;;;;;;;4.95;1.08;;;20.70;66.70;;;;;;5099216;28;20024;-61
2022/09/09 08:11:22;;;;;;;4.95;1.17;;;20.80;65.90;;;;;;5086632;28;20031;-62
2022/09/09 08:13:49;;;;;;;3.42;0.95;;;20.90;65.40;;;;;;5098988;28;20027;-62
2022/09/09 08:16:23;;;;;;;7.10;1.10;;;21.00;64.90;;;;;;5081104;28;20554;-61
2022/09/09 08:18:50;;;;;;;3.70;0.88;;;21.00;64.50;;;;;;5083137;28;20061;-62
2022/09/09 08:21:19;;;;;;;6.28;1.38;;;21.10;64.20;;;;;;5088882;28;20024;-63
2022/09/09 08:23:47;;;;;;;2.95;1.10;;;21.20;64.90;;;;;;5086784;28;20379;-61
2022/09/09 08:26:17;;;;;;;3.47;0.95;;;21.20;64.70;;;;;;5083149;28;20032;-62
2022/09/09 08:28:43;;;;;;;5.47;1.33;;;21.30;64.60;;;;;;5086869;28;20383;-62
2022/09/09 08:31:30;;;;;;;4.40;1.45;;;21.40;65.00;;;;;;5077023;28;20504;-62
2022/09/09 08:33:57;;;;;;;2.95;0.90;;;21.60;64.60;;;;;;5085322;28;20035;-62
2022/09/09 08:36:25;;;;;;;3.53;1.20;;;21.80;64.70;;;;;;5088976;28;20096;-62
2022/09/09 08:38:54;;;;;;;4.20;1.30;;;22.00;64.10;;;;;;5091128;28;20083;-62
2022/09/09 08:41:34;;;;;;;2.65;1.00;;;22.10;63.40;;;;;;5089501;28;20482;-63
2022/09/09 08:44:14;;;;;;;6.57;1.40;;;22.30;62.80;;;;;;5085238;28;20062;-62
2022/09/09 08:47:18;;;;;;;7.47;1.25;;;22.40;62.20;;;;;;5083318;28;20112;-62
2022/09/09 08:50:16;;;;;;;2.78;0.93;;;22.50;62.60;;;;;;5067940;28;20163;-62
2022/09/09 08:53:17;;;;;;;3.55;1.10;;;22.60;61.80;;;;;;5066150;28;20101;-62
2022/09/09 08:55:51;;;;;;;6.28;1.15;;;22.80;60.20;;;;;;5074068;28;20519;-63
2022/09/09 08:58:30;;;;;;;8.32;1.45;;;22.80;60.60;;;;;;5063360;28;20081;-62
2022/09/09 09:01:10;;;;;;;2.55;0.80;;;22.90;60.40;;;;;;5058530;28;20084;-62
2022/09/09 09:03:45;;;;;;;6.38;1.63;;;23.00;60.00;;;;;;5064249;28;20029;-62
2022/09/09 09:06:29;;;;;;;2.70;1.00;;;23.10;59.30;;;;;;5063546;28;20119;-63
2022/09/09 09:09:13;;;;;;;4.03;0.93;;;23.20;58.30;;;;;;5084168;28;20032;-63
2022/09/09 09:11:47;;;;;;;5.60;1.13;;;23.30;57.10;;;;;;5063047;28;20067;-62
2022/09/09 09:14:23;;;;;;;5.18;1.08;;;23.30;58.20;;;;;;5044108;28;20033;-61
2022/09/09 09:16:58;;;;;;;4.05;1.13;;;23.20;57.80;;;;;;5077509;28;20096;-62
2022/09/09 09:19:26;;;;;;;4.25;1.00;;;23.20;57.90;;;;;;5095247;28;20046;-63
2022/09/09 09:22:00;;;;;;;3.55;0.80;;;23.20;57.80;;;;;;5080211;28;20020;-62
2022/09/09 09:24:39;;;;;;;5.32;1.10;;;23.10;57.20;;;;;;5085249;28;20040;-62
2022/09/09 09:27:32;;;;;;;3.20;1.02;;;23.10;55.80;;;;;;5082481;28;20047;-63
2022/09/09 09:30:00;;;;;;;2.33;0.90;;;23.00;56.50;;;;;;5076130;28;20036;-62
2022/09/09 09:32:32;;;;;;;2.72;0.90;;;23.10;57.30;;;;;;5085092;28;20052;-62
2022/09/09 09:35:00;;;;;;;3.35;1.15;;;23.20;58.20;;;;;;5069945;28;20509;-62
2022/09/09 09:37:30;;;;;;;2.47;0.85;;;23.30;57.00;;;;;;5097645;28;20065;-63
2022/09/09 09:40:15;;;;;;;1.80;0.68;;;23.40;58.00;;;;;;5070390;28;20051;-62
2022/09/09 09:42:55;;;;;;;3.20;0.90;;;23.60;56.90;;;;;;5071859;28;20116;-62
2022/09/09 09:45:32;;;;;;;3.58;0.73;;;23.80;56.70;;;;;;5074821;28;20027;-62
2022/09/09 09:48:03;;;;;;;2.08;0.70;;;24.00;56.20;;;;;;5081464;28;20060;-63
2022/09/09 09:50:31;;;;;;;3.55;0.90;;;24.10;56.00;;;;;;5082625;28;20063;-62
2022/09/09 09:53:04;;;;;;;3.55;0.80;;;24.30;55.40;;;;;;5083065;28;20046;-62
2022/09/09 09:55:33;;;;;;;3.65;1.10;;;24.40;53.80;;;;;;5078560;28;20052;-63
2022/09/09 09:58:06;;;;;;;3.08;0.95;;;24.40;53.90;;;;;;5088495;28;20043;-63
2022/09/09 10:00:34;;;;;;;2.20;0.80;;;24.40;52.70;;;;;;5085632;28;20093;-62
2022/09/09 10:03:01;;;;;;;7.20;1.10;;;24.30;53.00;;;;;;5079363;28;20056;-62
2022/09/09 10:05:29;;;;;;;5.90;1.00;;;24.30;53.50;;;;;;5077481;28;20032;-62
2022/09/09 10:08:12;;;;;;;2.65;0.88;;;24.20;53.70;;;;;;5083063;28;20024;-62
2022/09/09 10:10:46;;;;;;;5.43;1.80;;;24.30;53.20;;;;;;5070950;28;20227;-63
2022/09/09 10:13:24;;;;;;;4.32;1.00;;;24.30;53.00;;;;;;5078077;28;20029;-63
2022/09/09 10:15:59;;;;;;;2.47;1.02;;;24.40;52.90;;;;;;5064954;28;20045;-63
2022/09/09 10:18:59;;;;;;;2.35;0.63;;;24.40;51.80;;;;;;5081787;28;20040;-62
2022/09/09 10:21:40;;;;;;;3.45;0.70;;;24.40;51.30;;;;;;5103423;28;20043;-63
2022/09/09 10:24:05;;;;;;;2.97;0.93;;;24.40;52.70;;;;;;5105601;28;20016;-63
2022/09/09 10:26:50;;;;;;;4.50;0.77;;;24.50;52.70;;;;;;5086767;28;20127;-62
2022/09/09 10:29:32;;;;;;;4.13;0.93;;;24.50;51.60;;;;;;5091192;28;20481;-62
2022/09/09 10:32:26;;;;;;;2.70;0.80;;;24.60;51.50;;;;;;5075234;28;20052;-62
2022/09/09 10:35:13;;;;;;;2.03;0.80;;;24.70;51.50;;;;;;5064954;28;20029;-64
2022/09/09 10:37:57;;;;;;;2.03;0.80;;;24.70;48.80;;;;;;5073463;28;20044;-63
2022/09/09 10:40:37;;;;;;;2.63;0.70;;;24.60;49.70;;;;;;5072174;28;20090;-63
2022/09/09 10:43:21;;;;;;;2.95;0.70;;;24.50;49.80;;;;;;5062938;28;20037;-62
2022/09/09 10:46:03;;;;;;;5.70;0.68;;;24.50;50.60;;;;;;5065289;28;20060;-63
2022/09/09 10:48:35;;;;;;;2.03;0.50;;;24.50;51.40;;;;;;5068043;28;20226;-64
2022/09/09 10:51:01;;;;;;;4.03;0.75;;;24.50;51.30;;;;;;5066023;28;20029;-64
2022/09/09 10:53:38;;;;;;;5.32;0.70;;;24.60;51.50;;;;;;5084934;28;20054;-63
2022/09/09 10:56:18;;;;;;;4.15;1.08;;;24.70;51.00;;;;;;5079727;28;20067;-63
2022/09/09 10:59:41;;;;;;;3.53;0.98;;;24.90;49.10;;;;;;5083523;28;20043;-62
2022/09/09 11:02:17;;;;;;;5.80;0.85;;;25.10;49.90;;;;;;5060690;28;20040;-63
2022/09/09 11:04:45;;;;;;;2.78;0.70;;;25.30;49.40;;;;;;5064115;28;20029;-62
2022/09/09 11:07:18;;;;;;;2.33;0.88;;;25.50;49.10;;;;;;5048300;28;20029;-63
2022/09/09 11:09:51;;;;;;;3.33;0.93;;;25.70;47.30;;;;;;5065833;28;20056;-63
2022/09/09 11:12:20;;;;;;;4.32;0.80;;;25.80;48.10;;;;;;5064341;28;20021;-63
2022/09/09 11:15:01;;;;;;;3.13;0.82;;;26.00;47.70;;;;;;5066515;28;20484;-63
2022/09/09 11:17:38;;;;;;;2.38;0.65;;;26.20;43.80;;;;;;5060460;28;19920;-62
2022/09/09 11:20:06;;;;;;;5.38;1.08;;;26.20;44.40;;;;;;5048921;28;20048;-63
2022/09/09 11:22:39;;;;;;;2.70;0.70;;;26.10;44.50;;;;;;5056241;28;20531;-62
2022/09/09 11:25:15;;;;;;;1.67;0.60;;;26.00;44.30;;;;;;5066242;28;20044;-63
2022/09/09 11:27:49;;;;;;;2.45;0.63;;;25.90;44.50;;;;;;5058416;28;20061;-63
2022/09/09 11:30:19;;;;;;;1.92;0.57;;;25.80;45.30;;;;;;5046016;28;20045;-62
2022/09/09 11:32:53;;;;;;;2.47;0.90;;;25.80;44.70;;;;;;5064178;28;20063;-63
2022/09/09 11:35:52;;;;;;;1.02;0.50;;;25.90;45.90;;;;;;5066505;28;20052;-64
2022/09/09 11:38:38;;;;;;;3.10;0.73;;;26.00;45.50;;;;;;5097028;28;20028;-63
2022/09/09 11:41:07;;;;;;;2.22;0.73;;;26.10;44.20;;;;;;5068282;28;20036;-63
2022/09/09 11:43:41;;;;;;;2.22;0.63;;;26.20;45.00;;;;;;5090268;28;20111;-62
2022/09/09 11:46:07;;;;;;;;;;;26.20;44.10;;;;;;5068637;28;20029;-63
2022/09/09 11:48:57;;;;;;;1.80;0.40;;;26.30;45.90;;;;;;5084869;28;19916;-63
2022/09/09 11:51:29;;;;;;;4.10;0.60;;;26.40;44.10;;;;;;5086702;28;20028;-62
2022/09/09 11:53:57;;;;;;;1.75;0.60;;;26.50;43.20;;;;;;5093371;28;20028;-62
2022/09/09 11:56:45;;;;;;;3.15;0.80;;;26.60;42.80;;;;;;5079178;28;20045;-62
2022/09/09 11:59:31;;;;;;;2.15;0.70;;;26.60;42.40;;;;;;5088067;28;20029;-63
2022/09/09 12:02:14;;;;;;;2.53;0.73;;;26.60;39.70;;;;;;5083674;28;20046;-65
2022/09/09 12:05:12;;;;;;;2.35;0.52;;;26.50;40.50;;;;;;5086669;28;20028;-64
2022/09/09 12:07:58;;;;;;;1.98;0.57;;;26.20;40.70;;;;;;5082770;28;20054;-64
2022/09/09 12:10:29;;;;;;;2.20;0.55;;;26.10;41.70;;;;;;5090842;28;20032;-63
2022/09/09 12:12:55;;;;;;;2.28;0.60;;;25.90;41.20;;;;;;5071726;28;20020;-64
2022/09/09 12:15:28;;;;;;;2.83;0.70;;;25.70;41.30;;;;;;5076119;28;20487;-62
2022/09/09 12:17:56;;;;;;;1.52;0.40;;;25.60;42.10;;;;;;5081606;28;20047;-62
2022/09/09 12:20:31;;;;;;;2.55;0.60;;;25.50;43.20;;;;;;5083964;28;20028;-63
2022/09/09 12:23:26;;;;;;;1.60;0.50;;;25.50;41.80;;;;;;5081469;28;20032;-63
2022/09/09 12:26:06;;;;;;;3.60;0.77;;;25.60;41.60;;;;;;5078332;28;20036;-62
2022/09/09 12:29:12;;;;;;;2.58;0.70;;;25.60;41.40;;;;;;5073691;28;20029;-63
2022/09/09 12:31:46;;;;;;;1.88;0.52;;;25.50;42.00;;;;;;5078446;28;20056;-63
2022/09/09 12:34:38;;;;;;;3.50;0.63;;;25.50;42.60;;;;;;5078607;28;20016;-62
2022/09/09 12:37:20;;;;;;;7.28;0.63;;;25.50;41.60;;;;;;5090686;28;20446;-61
2022/09/09 12:39:51;;;;;;;0.68;0.40;;;25.60;40.30;;;;;;5079967;28;20482;-64
2022/09/09 12:42:21;;;;;;;2.22;0.50;;;25.60;40.20;;;;;;5079301;28;20100;-63
2022/09/09 12:45:06;;;;;;;1.88;0.40;;;25.70;39.90;;;;;;5080142;28;20686;-62
2022/09/09 12:47:40;;;;;;;1.05;0.60;;;25.70;39.80;;;;;;5079478;28;20025;-62
2022/09/09 12:50:34;;;;;;;3.25;0.50;;;25.80;38.60;;;;;;5082263;28;20123;-62
2022/09/09 12:53:15;;;;;;;1.90;0.60;;;26.00;37.80;;;;;;5075343;28;20021;-63
2022/09/09 12:55:50;;;;;;;3.55;0.50;;;26.00;39.50;;;;;;5069144;28;20045;-63
2022/09/09 12:58:18;;;;;;;4.78;0.43;;;26.10;38.60;;;;;;5071478;28;20040;-62
2022/09/09 13:00:53;;;;;;;1.27;0.40;;;26.20;39.20;;;;;;5096715;28;20016;-63
2022/09/09 13:03:23;;;;;;;1.85;0.47;;;26.30;38.80;;;;;;5092555;28;20036;-61
2022/09/09 13:05:49;;;;;;;1.20;0.50;;;26.30;39.30;;;;;;5103546;28;20478;-63
2022/09/09 13:08:20;;;;;;;3.60;0.50;;;26.40;39.30;;;;;;5093404;28;20029;-62
2022/09/09 13:10:57;;;;;;;1.55;0.40;;;26.50;38.80;;;;;;5065866;28;20025;-63
2022/09/09 13:13:29;;;;;;;1.17;0.60;;;26.70;38.70;;;;;;5066945;28;20043;-62
2022/09/09 13:15:57;;;;;;;1.83;0.55;;;26.80;39.00;;;;;;5085306;28;20041;-63